Time;durP1;ratioP1;P1;durP2;ratioP2;P2;SDS_P1;SDS_P2;PMS_P1;PMS_P2;Temp;Humidity;BMP_temperature;BMP_pressure;BME280_temperature;BME280_humidity;BME280_pressure;Samples;Min_cycle;Max_cycle;Signal;HPM_P1;HPM_P2
2022/03/01 00:01:22;;;;;;;10.52;5.18;;;;;;;-2.29;70.38;95451.94;5064927;28;20016;-73
2022/03/01 00:03:48;;;;;;;11.57;6.35;;;;;;;-2.29;70.38;95445.13;5069677;28;20036;-73
2022/03/01 00:06:13;;;;;;;13.07;6.78;;;;;;;-2.28;70.15;95448.56;5054263;28;20044;-73
2022/03/01 00:08:39;;;;;;;16.15;7.30;;;;;;;-2.34;70.58;95446.97;5079300;28;20051;-73
2022/03/01 00:11:04;;;;;;;12.15;6.55;;;;;;;-2.33;70.62;95445.25;5088144;28;20414;-73
2022/03/01 00:13:30;;;;;;;8.65;4.70;;;;;;;-2.37;69.75;95446.19;5084281;28;20498;-72
2022/03/01 00:15:55;;;;;;;9.18;4.97;;;;;;;-2.52;69.47;95445.66;5072102;28;20495;-73
2022/03/01 00:18:20;;;;;;;7.75;4.68;;;;;;;-2.59;69.66;95436.50;5078816;28;20098;-74
2022/03/01 00:20:46;;;;;;;6.60;4.95;;;;;;;-2.63;69.75;95431.50;5079460;28;20028;-72
2022/03/01 00:23:11;;;;;;;8.02;6.35;;;;;;;-2.65;70.10;95435.78;5085204;28;20035;-73
2022/03/01 00:25:37;;;;;;;8.10;4.90;;;;;;;-2.70;70.01;95428.28;5084716;28;20113;-72
2022/03/01 00:28:03;;;;;;;7.38;4.85;;;;;;;-2.81;69.65;95430.22;5069248;28;20044;-72
2022/03/01 00:30:28;;;;;;;7.38;4.95;;;;;;;-2.93;69.96;95413.47;5068974;28;20052;-72
2022/03/01 00:32:53;;;;;;;5.93;4.05;;;;;;;-3.00;69.71;95420.41;5052060;28;20036;-72
2022/03/01 00:35:19;;;;;;;6.95;3.92;;;;;;;-3.07;70.12;95408.69;5071525;28;20037;-73
2022/03/01 00:37:45;;;;;;;6.53;4.05;;;;;;;-3.10;70.40;95402.81;5052732;28;20189;-72
2022/03/01 00:40:11;;;;;;;7.00;4.03;;;;;;;-3.08;70.40;95411.25;5082244;28;20025;-72
2022/03/01 00:42:36;;;;;;;6.80;4.10;;;;;;;-3.05;70.76;95408.66;5068061;28;20040;-72
2022/03/01 00:45:02;;;;;;;6.30;4.40;;;;;;;-3.13;70.27;95396.09;5068988;28;20033;-72
2022/03/01 00:47:27;;;;;;;9.32;5.03;;;;;;;-3.03;70.15;95417.94;5068694;28;20163;-72
2022/03/01 00:49:53;;;;;;;7.95;4.90;;;;;;;-3.15;70.16;95391.06;5068358;28;20036;-72
2022/03/01 00:52:18;;;;;;;7.50;4.65;;;;;;;-3.00;69.52;95411.94;5074241;28;20032;-72
2022/03/01 00:54:44;;;;;;;5.82;4.07;;;;;;;-3.07;69.62;95400.22;5081541;28;20458;-72
2022/03/01 00:57:09;;;;;;;6.38;3.90;;;;;;;-3.03;69.25;95404.38;5089188;28;20031;-72
2022/03/01 00:59:34;;;;;;;5.85;3.65;;;;;;;-3.06;69.82;95401.91;5044632;28;20422;-72
2022/03/01 01:02:00;;;;;;;6.45;4.28;;;;;;;-3.09;69.20;95407.03;5068939;28;20036;-72
2022/03/01 01:04:25;;;;;;;6.07;4.18;;;;;;;-3.10;69.03;95396.03;5068388;28;20040;-72
2022/03/01 01:06:51;;;;;;;6.60;4.15;;;;;;;-3.11;69.61;95403.69;5069323;28;20414;-72
2022/03/01 01:09:16;;;;;;;5.63;3.75;;;;;;;-3.11;69.36;95398.63;5089850;28;20031;-72
2022/03/01 01:11:42;;;;;;;8.10;4.88;;;;;;;-3.10;69.49;95408.75;5084057;28;20024;-72
2022/03/01 01:14:07;;;;;;;9.05;4.22;;;;;;;-3.22;68.98;95381.88;5072718;28;20036;-72
2022/03/01 01:16:33;;;;;;;6.93;4.03;;;;;;;-3.12;68.83;95404.56;5069963;28;20032;-72
2022/03/01 01:18:58;;;;;;;5.57;3.83;;;;;;;-3.18;69.29;95396.19;5073670;28;20056;-72
2022/03/01 01:22:39;;;;;;;5.53;3.70;;;;;;;-3.16;69.14;95399.53;5071656;28;20468;-72
2022/03/01 01:24:09;;;;;;;5.10;3.28;;;;;;;-3.12;68.77;95402.00;5082208;28;20438;-72
2022/03/01 01:26:34;;;;;;;5.22;3.13;;;;;;;-3.10;68.71;95402.81;5086731;28;20043;-72
2022/03/01 01:29:00;;;;;;;5.32;3.70;;;;;;;-3.10;68.83;95397.75;5072629;28;20029;-72
2022/03/01 01:31:25;;;;;;;6.30;3.60;;;;;;;-3.10;68.75;95392.66;5073368;28;20032;-72
2022/03/01 01:33:51;;;;;;;6.68;3.47;;;;;;;-3.08;68.82;95388.38;5093350;28;20047;-72
2022/03/01 01:36:16;;;;;;;4.20;3.22;;;;;;;-3.14;68.75;95386.81;5056993;28;20029;-72
2022/03/01 01:38:42;;;;;;;6.10;3.72;;;;;;;-3.08;68.67;95386.66;5073901;28;20036;-72
2022/03/01 01:41:07;;;;;;;7.60;4.32;;;;;;;-3.15;68.51;95375.81;5071220;28;20044;-72
2022/03/01 01:43:33;;;;;;;8.80;5.07;;;;;;;-3.12;68.29;95377.44;5073293;28;20048;-72
2022/03/01 01:45:58;;;;;;;8.73;4.68;;;;;;;-3.17;68.48;95377.53;5068177;28;20029;-72
2022/03/01 01:48:24;;;;;;;6.25;3.60;;;;;;;-3.15;68.33;95378.34;5074060;28;20055;-72
2022/03/01 01:50:49;;;;;;;5.10;3.40;;;;;;;-3.19;68.41;95384.34;5083961;28;20032;-72
2022/03/01 01:53:15;;;;;;;3.92;3.00;;;;;;;-3.22;68.22;95376.78;5050399;28;20590;-72
2022/03/01 01:55:40;;;;;;;5.47;3.70;;;;;;;-3.20;68.34;95376.78;5070945;28;20032;-72
2022/03/01 01:58:06;;;;;;;4.97;3.63;;;;;;;-3.27;68.22;95377.75;5084101;28;20114;-72
2022/03/01 02:00:31;;;;;;;5.70;3.55;;;;;;;-3.27;68.35;95370.13;5068401;28;20032;-72
2022/03/01 02:02:57;;;;;;;7.82;4.03;;;;;;;-3.32;68.23;95371.91;5073358;28;20029;-72
2022/03/01 02:05:22;;;;;;;8.70;4.13;;;;;;;-3.31;68.13;95381.22;5091448;28;20073;-72
2022/03/01 02:07:48;;;;;;;10.48;4.40;;;;;;;-3.32;68.47;95367.66;5087340;28;20463;-72
2022/03/01 02:10:14;;;;;;;9.85;4.18;;;;;;;-3.34;68.19;95366.88;5072967;28;20032;-72
2022/03/01 02:12:39;;;;;;;14.00;4.95;;;;;;;-3.35;68.34;95366.91;5085596;28;20604;-72
2022/03/01 02:15:05;;;;;;;8.32;4.80;;;;;;;-3.40;68.36;95367.84;5074569;28;20081;-72
2022/03/01 02:17:30;;;;;;;7.22;4.70;;;;;;;-3.51;68.36;95344.34;5073209;28;20115;-72
2022/03/01 02:19:56;;;;;;;7.15;4.32;;;;;;;-3.47;68.08;95347.66;5072901;28;20028;-72
2022/03/01 02:22:21;;;;;;;6.65;4.18;;;;;;;-3.49;68.03;95349.38;5079187;28;20494;-72
2022/03/01 02:24:47;;;;;;;6.45;3.47;;;;;;;-3.51;68.50;95338.41;5060985;28;20037;-72
2022/03/01 02:27:13;;;;;;;6.93;4.03;;;;;;;-3.56;68.24;95330.06;5055758;28;20024;-72
2022/03/01 02:29:39;;;;;;;5.07;3.33;;;;;;;-3.56;68.35;95333.44;5046797;28;20024;-72
2022/03/01 02:32:06;;;;;;;5.80;3.22;;;;;;;-3.55;68.35;95329.19;5082352;28;20446;-71
2022/03/01 02:34:32;;;;;;;4.38;2.67;;;;;;;-3.58;68.83;95330.09;5049777;28;20120;-72
2022/03/01 02:36:57;;;;;;;5.88;3.20;;;;;;;-3.56;69.11;95332.63;5054802;28;20127;-72
2022/03/01 02:39:23;;;;;;;6.68;3.28;;;;;;;-3.56;69.14;95342.78;5072213;28;20081;-71
2022/03/01 02:41:48;;;;;;;4.80;3.17;;;;;;;-3.70;68.38;95336.25;5089711;28;20036;-72
2022/03/01 02:44:14;;;;;;;6.70;3.72;;;;;;;-3.78;69.19;95347.41;5091640;28;20028;-72
2022/03/01 02:46:39;;;;;;;6.68;3.65;;;;;;;-3.75;68.45;95352.44;5059273;28;20071;-72
2022/03/01 02:49:05;;;;;;;6.32;3.70;;;;;;;-3.79;67.90;95351.63;5071398;28;20036;-72
2022/03/01 02:51:31;;;;;;;4.82;3.20;;;;;;;-3.85;68.51;95346.69;5060860;28;20543;-72
2022/03/01 02:53:56;;;;;;;5.05;3.10;;;;;;;-3.90;68.48;95346.78;5056521;28;20036;-71
2022/03/01 02:56:22;;;;;;;6.30;3.42;;;;;;;-3.95;68.96;95346.03;5091043;28;20028;-72
2022/03/01 02:58:47;;;;;;;5.65;3.17;;;;;;;-3.94;68.47;95344.31;5069615;28;20037;-72
2022/03/01 03:01:13;;;;;;;4.35;2.72;;;;;;;-3.85;68.90;95346.69;5073965;28;20085;-72
2022/03/01 03:03:38;;;;;;;4.80;3.10;;;;;;;-3.82;68.58;95346.63;5091380;28;20036;-72
2022/03/01 03:06:04;;;;;;;3.67;2.90;;;;;;;-3.79;68.97;95350.81;5048548;28;20066;-71
2022/03/01 03:08:30;;;;;;;5.47;3.30;;;;;;;-3.94;68.50;95326.53;5060300;28;20043;-71
2022/03/01 03:10:55;;;;;;;4.50;3.00;;;;;;;-3.92;68.80;95319.75;5089358;28;20028;-71
2022/03/01 03:13:21;;;;;;;4.25;3.13;;;;;;;-3.76;68.34;95349.06;5091961;28;20028;-72
2022/03/01 03:15:47;;;;;;;5.72;3.30;;;;;;;-3.78;68.61;95344.88;5073712;28;20028;-71
2022/03/01 03:18:15;;;;;;;5.70;3.20;;;;;;;-3.80;68.66;95344.91;5063844;28;20055;-71
2022/03/01 03:20:41;;;;;;;5.50;3.13;;;;;;;-3.82;68.44;95351.69;5071717;28;20047;-72
2022/03/01 03:23:06;;;;;;;4.70;2.70;;;;;;;-3.87;68.72;95348.44;5069999;28;20115;-71
2022/03/01 03:25:32;;;;;;;5.03;3.13;;;;;;;-3.96;69.21;95341.78;5071562;28;20032;-71
2022/03/01 03:27:57;;;;;;;4.10;2.58;;;;;;;-3.89;69.15;95358.59;5081620;28;20483;-71
2022/03/01 03:30:23;;;;;;;5.13;3.50;;;;;;;-3.88;68.79;95351.81;5070207;28;20506;-71
2022/03/01 03:32:48;;;;;;;4.03;2.65;;;;;;;-3.90;69.38;95367.09;5060261;28;20032;-71
2022/03/01 03:35:13;;;;;;;4.40;2.60;;;;;;;-3.88;68.94;95362.81;5077913;28;20039;-71
2022/03/01 03:37:39;;;;;;;4.30;2.95;;;;;;;-3.91;69.20;95351.88;5070032;28;20049;-72
2022/03/01 03:40:05;;;;;;;6.70;3.03;;;;;;;-3.88;68.77;95362.81;5071098;28;20541;-71
2022/03/01 03:42:30;;;;;;;5.30;3.47;;;;;;;-3.97;68.84;95352.81;5062358;28;20131;-71
2022/03/01 03:44:56;;;;;;;5.00;3.28;;;;;;;-3.93;68.56;95356.13;5053554;28;20024;-71
2022/03/01 03:47:21;;;;;;;5.18;3.20;;;;;;;-3.95;67.98;95347.72;5070470;28;20032;-71
2022/03/01 03:49:47;;;;;;;5.30;3.30;;;;;;;-3.98;68.30;95345.22;5073538;28;20416;-71
2022/03/01 03:52:12;;;;;;;5.20;3.22;;;;;;;-3.94;68.82;95349.38;5058428;28;20434;-71
2022/03/01 03:54:38;;;;;;;4.50;2.90;;;;;;;-3.92;68.67;95355.28;5070323;28;20044;-71
2022/03/01 03:57:08;;;;;;;4.93;2.72;;;;;;;-3.90;68.48;95351.84;5073928;28;20479;-71
2022/03/01 03:59:34;;;;;;;3.75;2.17;;;;;;;-3.89;68.68;95350.16;5070223;28;20048;-71
2022/03/01 04:02:00;;;;;;;4.85;3.00;;;;;;;-3.84;68.42;95354.28;5085581;28;20024;-72
2022/03/01 04:04:26;;;;;;;4.55;2.58;;;;;;;-3.84;67.93;95349.19;5073476;28;20131;-71
2022/03/01 04:06:51;;;;;;;3.95;2.63;;;;;;;-3.89;67.73;95345.91;5091068;28;20020;-71
2022/03/01 04:09:17;;;;;;;4.10;2.67;;;;;;;-3.91;68.14;95346.78;5077077;28;20055;-71
2022/03/01 04:11:42;;;;;;;3.85;2.60;;;;;;;-3.87;67.33;95353.50;5069717;28;20418;-71
2022/03/01 04:14:08;;;;;;;4.35;2.70;;;;;;;-3.88;66.93;95345.03;5072271;28;20415;-71
2022/03/01 04:16:33;;;;;;;3.83;2.88;;;;;;;-3.94;67.06;95341.78;5072063;28;20035;-71
2022/03/01 04:18:59;;;;;;;4.10;3.10;;;;;;;-4.05;67.31;95347.88;5069862;28;20447;-71
2022/03/01 04:21:24;;;;;;;4.57;2.90;;;;;;;-4.03;67.39;95349.56;5071622;28;20036;-71
2022/03/01 04:23:50;;;;;;;3.50;2.60;;;;;;;-4.06;67.14;95350.44;5089160;28;20040;-71
2022/03/01 04:26:15;;;;;;;3.78;2.65;;;;;;;-4.24;67.06;95333.00;5083304;28;20130;-71
2022/03/01 04:28:41;;;;;;;4.60;2.67;;;;;;;-4.23;67.50;95335.53;5070788;28;20434;-71
2022/03/01 04:31:07;;;;;;;5.18;3.30;;;;;;;-4.20;67.02;95342.25;5080721;28;20024;-71
2022/03/01 04:33:32;;;;;;;3.92;2.70;;;;;;;-4.19;67.31;95347.28;5069701;28;20509;-71
2022/03/01 04:36:02;;;;;;;4.03;2.55;;;;;;;-4.23;67.62;95344.81;5083779;28;20028;-72
2022/03/01 04:38:28;;;;;;;6.03;3.47;;;;;;;-4.28;67.44;95347.44;5070795;28;20418;-71
2022/03/01 04:40:54;;;;;;;5.05;3.33;;;;;;;-4.24;67.69;95343.97;5074646;28;20035;-71
2022/03/01 04:43:19;;;;;;;3.92;2.83;;;;;;;-4.24;68.38;95348.22;5086789;28;20479;-71
2022/03/01 04:45:45;;;;;;;3.72;2.80;;;;;;;-4.27;68.12;95356.72;5069312;28;20086;-71
2022/03/01 04:48:10;;;;;;;4.60;2.65;;;;;;;-4.28;68.30;95349.97;5052865;28;20094;-71
2022/03/01 04:50:36;;;;;;;4.25;2.58;;;;;;;-4.31;67.94;95352.56;5075495;28;20516;-71
2022/03/01 04:53:01;;;;;;;3.47;2.47;;;;;;;-4.33;67.69;95352.59;5093657;28;20040;-71
2022/03/01 04:55:27;;;;;;;3.35;2.50;;;;;;;-4.42;67.60;95344.31;5091928;28;20054;-71
2022/03/01 04:57:52;;;;;;;5.22;2.70;;;;;;;-4.32;67.39;95364.44;5071034;28;20024;-71
2022/03/01 05:00:18;;;;;;;3.25;2.50;;;;;;;-4.36;67.54;95356.88;5073404;28;20510;-72
2022/03/01 05:02:44;;;;;;;3.40;2.30;;;;;;;-4.34;68.29;95360.25;5074515;28;20037;-71
2022/03/01 05:05:13;;;;;;;7.35;4.93;;;;;;;-4.44;67.56;95359.53;5091726;28;20555;-71
2022/03/01 05:07:39;;;;;;;8.63;5.22;;;;;;;-4.43;67.25;95366.28;5093640;28;20032;-71
2022/03/01 05:10:06;;;;;;;8.35;5.57;;;;;;;-4.47;67.62;95367.19;5091705;28;20035;-71
2022/03/01 05:12:31;;;;;;;10.15;6.28;;;;;;;-4.49;68.25;95369.75;5056695;28;20021;-71
2022/03/01 05:14:57;;;;;;;7.28;4.63;;;;;;;-4.45;67.78;95378.16;5078151;28;20085;-71
2022/03/01 05:17:22;;;;;;;8.57;5.20;;;;;;;-4.47;67.86;95371.44;5094154;28;20024;-71
2022/03/01 05:19:47;;;;;;;6.72;4.50;;;;;;;-4.49;68.33;95377.34;5092985;28;20028;-71
2022/03/01 05:22:13;;;;;;;5.35;3.63;;;;;;;-4.61;68.62;95372.47;5091383;28;20024;-71
2022/03/01 05:24:38;;;;;;;5.70;3.75;;;;;;;-4.61;68.61;95379.25;5087119;28;20040;-71
2022/03/01 05:27:04;;;;;;;7.10;4.40;;;;;;;-4.61;68.66;95380.09;5073937;28;20028;-71
2022/03/01 05:29:30;;;;;;;7.15;4.65;;;;;;;-4.70;68.30;95367.56;5083181;28;20035;-71
2022/03/01 05:31:55;;;;;;;5.40;3.55;;;;;;;-4.57;68.20;95380.88;5063030;28;20059;-71
2022/03/01 05:34:20;;;;;;;5.30;3.40;;;;;;;-4.56;67.29;95378.31;5085211;28;20036;-71
2022/03/01 05:36:46;;;;;;;3.97;2.63;;;;;;;-4.59;67.75;95375.00;5055829;28;20040;-71
2022/03/01 05:39:11;;;;;;;5.30;3.00;;;;;;;-4.58;67.36;95379.19;5074844;28;20041;-71
2022/03/01 05:41:37;;;;;;;5.20;3.90;;;;;;;-4.53;67.65;95380.81;5074495;28;20077;-71
2022/03/01 05:44:02;;;;;;;9.52;5.53;;;;;;;-4.56;67.58;95377.50;5073484;28;20505;-71
2022/03/01 05:46:28;;;;;;;14.85;8.52;;;;;;;-4.46;67.65;95384.06;5084936;28;20039;-71
2022/03/01 05:48:53;;;;;;;17.30;10.23;;;;;;;-4.48;67.28;95385.81;5094323;28;20024;-71
2022/03/01 05:51:18;;;;;;;12.57;8.15;;;;;;;-4.39;67.94;95388.19;5073518;28;20032;-71
2022/03/01 05:53:45;;;;;;;8.38;3.92;;;;;;;-4.33;68.64;95379.66;5073899;28;20032;-71
2022/03/01 05:56:10;;;;;;;5.22;3.40;;;;;;;-4.25;68.83;95375.31;5078401;28;20028;-71
2022/03/01 05:58:36;;;;;;;6.00;3.35;;;;;;;-4.17;68.88;95391.25;5078405;28;20040;-71
2022/03/01 06:01:01;;;;;;;6.68;3.20;;;;;;;-4.10;69.05;95397.88;5083270;28;20093;-71
2022/03/01 06:03:26;;;;;;;5.03;3.03;;;;;;;-4.11;68.66;95383.50;5075229;28;20036;-71
2022/03/01 06:05:52;;;;;;;4.65;2.90;;;;;;;-4.01;68.34;95396.03;5092314;28;20073;-70
2022/03/01 06:08:17;;;;;;;4.50;2.78;;;;;;;-3.94;68.57;95397.63;5092334;28;20032;-70
2022/03/01 06:10:43;;;;;;;5.75;2.97;;;;;;;-3.93;68.23;95400.16;5093783;28;20035;-71
2022/03/01 06:13:08;;;;;;;4.20;2.83;;;;;;;-3.84;68.03;95399.97;5093686;28;20050;-71
2022/03/01 06:15:33;;;;;;;5.10;2.80;;;;;;;-3.73;67.08;95412.50;5092280;28;20039;-71
2022/03/01 06:17:59;;;;;;;5.47;2.95;;;;;;;-3.78;66.98;95383.81;5092171;28;20039;-71
2022/03/01 06:20:24;;;;;;;5.38;2.97;;;;;;;-3.57;67.32;95402.03;5075103;28;20031;-71
2022/03/01 06:22:50;;;;;;;5.05;3.00;;;;;;;-3.50;67.08;95406.16;5081746;28;20085;-71
2022/03/01 06:25:15;;;;;;;5.18;2.92;;;;;;;-3.48;67.58;95401.84;5074464;28;20036;-71
2022/03/01 06:27:41;;;;;;;5.75;3.25;;;;;;;-3.43;67.64;95400.91;5075186;28;20059;-71
2022/03/01 06:30:07;;;;;;;6.53;2.92;;;;;;;-3.21;66.94;95397.94;5090138;28;20086;-71
2022/03/01 06:32:32;;;;;;;6.65;3.17;;;;;;;-2.93;66.33;95395.69;5054329;28;20422;-71
2022/03/01 06:34:58;;;;;;;6.63;3.13;;;;;;;-2.41;65.85;95392.00;5054867;28;20028;-71
2022/03/01 06:37:23;;;;;;;5.82;3.45;;;;;;;-2.28;65.13;95400.19;5072751;28;20036;-70
2022/03/01 06:39:50;;;;;;;6.07;3.28;;;;;;;-1.83;63.73;95393.13;5072262;28;20079;-72
2022/03/01 06:42:16;;;;;;;4.97;3.17;;;;;;;-1.18;63.16;95386.31;5065064;28;20036;-71
2022/03/01 06:44:41;;;;;;;4.63;2.90;;;;;;;-0.41;61.54;95391.72;5072389;28;20026;-71
2022/03/01 06:47:07;;;;;;;5.60;3.58;;;;;;;0.25;59.03;95387.88;5066587;28;20036;-71
2022/03/01 06:49:32;;;;;;;7.60;3.65;;;;;;;0.93;57.14;95383.84;5091547;28;20486;-71
2022/03/01 06:51:58;;;;;;;7.38;4.13;;;;;;;1.65;56.14;95388.00;5091476;28;20517;-71
2022/03/01 06:54:23;;;;;;;5.32;3.45;;;;;;;2.31;55.26;95385.34;5093257;28;20024;-71
2022/03/01 06:56:49;;;;;;;6.25;3.83;;;;;;;2.91;53.85;95388.78;5089507;28;20563;-71
2022/03/01 06:59:15;;;;;;;7.72;3.85;;;;;;;3.40;52.19;95378.03;5090343;28;20028;-71
2022/03/01 07:01:40;;;;;;;4.85;3.13;;;;;;;3.89;49.89;95386.88;5054275;28;20388;-72
2022/03/01 07:04:06;;;;;;;6.00;3.83;;;;;;;4.25;49.05;95373.16;5072241;28;20036;-72
2022/03/01 07:06:31;;;;;;;7.15;4.28;;;;;;;4.69;48.82;95381.22;5070990;28;20024;-72
2022/03/01 07:08:56;;;;;;;4.35;3.45;;;;;;;5.06;47.58;95381.06;5070902;28;20086;-72
2022/03/01 07:11:22;;;;;;;6.80;4.40;;;;;;;5.41;47.03;95383.53;5070895;28;20025;-71
2022/03/01 07:13:48;;;;;;;6.35;3.95;;;;;;;5.64;45.81;95377.16;5070474;28;20029;-71
2022/03/01 07:16:13;;;;;;;7.43;3.95;;;;;;;5.85;46.25;95382.84;5072025;28;20025;-71
2022/03/01 07:18:39;;;;;;;6.43;4.07;;;;;;;6.06;45.48;95379.13;5072387;28;20050;-71
2022/03/01 07:21:04;;;;;;;6.53;4.00;;;;;;;6.20;44.86;95379.19;5070770;28;20035;-73
2022/03/01 07:23:30;;;;;;;7.78;4.63;;;;;;;6.21;44.03;95365.38;5070632;28;20051;-72
2022/03/01 07:25:56;;;;;;;9.68;5.53;;;;;;;6.38;44.37;95377.31;5070576;28;20090;-71
2022/03/01 07:28:21;;;;;;;7.10;5.13;;;;;;;6.51;43.70;95382.59;5072036;28;20032;-72
2022/03/01 07:30:46;;;;;;;15.43;7.65;;;;;;;6.76;41.75;95379.41;5070489;28;20024;-72
2022/03/01 07:33:12;;;;;;;16.50;10.25;;;;;;;6.82;42.16;95384.19;5070489;28;20039;-72
2022/03/01 07:35:37;;;;;;;17.90;10.85;;;;;;;6.90;41.62;95370.84;5070345;28;20035;-71
2022/03/01 07:38:03;;;;;;;18.98;11.15;;;;;;;6.95;41.53;95373.97;5071769;28;20113;-72
2022/03/01 07:40:28;;;;;;;18.48;12.05;;;;;;;7.03;40.65;95364.03;5053742;28;20035;-71
2022/03/01 07:42:55;;;;;;;16.23;10.45;;;;;;;7.10;41.55;95380.84;5037150;28;20106;-72
2022/03/01 07:45:21;;;;;;;13.73;8.80;;;;;;;7.05;41.09;95382.00;5070240;28;20029;-72
2022/03/01 07:47:46;;;;;;;13.20;8.90;;;;;;;7.11;41.38;95371.31;5053597;28;20037;-72
2022/03/01 07:50:12;;;;;;;22.98;12.32;;;;;;;7.14;40.56;95371.13;5070189;28;20052;-72
2022/03/01 07:52:37;;;;;;;17.50;11.10;;;;;;;7.34;39.87;95372.50;5053620;28;20048;-72
2022/03/01 07:55:03;;;;;;;15.63;9.70;;;;;;;7.48;39.19;95377.66;5036783;28;20028;-72
2022/03/01 07:57:29;;;;;;;14.68;8.05;;;;;;;7.28;39.04;95372.88;5053499;28;20042;-73
2022/03/01 07:59:54;;;;;;;13.48;7.80;;;;;;;6.59;40.45;95370.06;5069993;28;20029;-72
2022/03/01 08:02:20;;;;;;;14.60;9.25;;;;;;;6.25;40.85;95374.59;5069812;28;20086;-72
2022/03/01 08:04:45;;;;;;;11.30;6.85;;;;;;;6.52;39.51;95380.81;5069872;28;20032;-72
2022/03/01 08:07:11;;;;;;;10.27;6.10;;;;;;;6.14;40.73;95383.88;5069863;28;20035;-72
2022/03/01 08:09:40;;;;;;;15.57;8.15;;;;;;;5.65;41.80;95381.38;5068315;28;20033;-72
2022/03/01 08:12:07;;;;;;;10.82;6.50;;;;;;;5.20;42.66;95388.06;5053373;28;20086;-71
2022/03/01 08:14:33;;;;;;;87.40;26.55;;;;;;;4.97;45.08;95386.72;5070034;28;20033;-71
2022/03/01 08:16:59;;;;;;;21.75;9.73;;;;;;;4.89;44.17;95393.06;5053276;28;20094;-73
2022/03/01 08:19:25;;;;;;;10.40;5.82;;;;;;;4.18;45.35;95388.06;5069926;28;20044;-70
2022/03/01 08:21:50;;;;;;;11.02;7.03;;;;;;;3.79;47.07;95390.78;5069538;28;20020;-71
2022/03/01 08:24:16;;;;;;;8.15;5.60;;;;;;;3.46;47.19;95391.44;5069911;28;20028;-71
2022/03/01 08:26:41;;;;;;;7.85;5.38;;;;;;;2.99;49.01;95391.84;5068720;28;20029;-71
2022/03/01 08:29:07;;;;;;;8.55;5.78;;;;;;;2.72;50.14;95390.47;5053139;28;20036;-70
2022/03/01 08:31:32;;;;;;;8.90;5.45;;;;;;;2.50;50.64;95385.41;5069564;28;20024;-70
2022/03/01 08:33:59;;;;;;;11.35;6.55;;;;;;;2.19;51.70;95378.97;5069746;28;20036;-70
2022/03/01 08:36:25;;;;;;;10.75;7.47;;;;;;;2.07;52.14;95385.44;5069407;28;20028;-70
2022/03/01 08:38:51;;;;;;;10.38;6.45;;;;;;;1.93;52.50;95392.88;5052927;28;20093;-70
2022/03/01 08:41:16;;;;;;;8.00;5.57;;;;;;;1.75;52.15;95389.28;5070795;28;20024;-70
2022/03/01 08:43:42;;;;;;;11.18;6.57;;;;;;;1.67;52.88;95389.59;5052750;28;20075;-70
2022/03/01 08:46:11;;;;;;;12.18;6.78;;;;;;;1.64;52.79;95387.13;5053053;28;20035;-70
2022/03/01 08:48:36;;;;;;;17.80;8.23;;;;;;;1.62;53.32;95398.34;5069542;28;20024;-70
2022/03/01 08:51:02;;;;;;;12.35;6.40;;;;;;;1.46;52.73;95393.81;5069394;28;20031;-70
2022/03/01 08:53:27;;;;;;;13.70;7.00;;;;;;;1.41;53.16;95407.69;5069507;28;20083;-70
2022/03/01 08:55:53;;;;;;;12.43;7.72;;;;;;;1.45;54.49;95409.22;5069315;28;20036;-69
2022/03/01 08:58:19;;;;;;;13.40;8.05;;;;;;;1.43;53.41;95405.91;5069443;28;20021;-70
2022/03/01 09:00:45;;;;;;;14.55;9.23;;;;;;;1.27;53.32;95403.91;5035954;28;20036;-70
2022/03/01 09:03:11;;;;;;;18.38;9.57;;;;;;;1.17;55.91;95405.16;5069330;28;20039;-69
2022/03/01 09:05:36;;;;;;;19.80;10.68;;;;;;;1.19;55.82;95407.63;5052485;28;20025;-69
2022/03/01 09:08:02;;;;;;;15.15;8.73;;;;;;;1.19;55.21;95405.91;5069318;28;20091;-70
2022/03/01 09:10:27;;;;;;;13.52;8.23;;;;;;;1.08;54.39;95406.28;5069186;28;20483;-69
2022/03/01 09:12:53;;;;;;;12.68;8.00;;;;;;;1.10;54.90;95411.38;5069183;28;20024;-69
2022/03/01 09:15:19;;;;;;;13.43;7.38;;;;;;;1.09;55.61;95407.97;5069136;28;20094;-70
2022/03/01 09:17:45;;;;;;;11.68;7.07;;;;;;;1.15;55.79;95409.47;5069165;28;20033;-69
2022/03/01 09:20:11;;;;;;;12.40;7.97;;;;;;;1.14;55.32;95410.34;5069143;28;20119;-70
2022/03/01 09:22:36;;;;;;;11.10;6.30;;;;;;;1.18;54.12;95409.38;5069121;28;20029;-69
2022/03/01 09:25:04;;;;;;;9.07;6.20;;;;;;;1.03;53.66;95397.13;5069064;28;20135;-69
2022/03/01 09:27:29;;;;;;;11.30;6.28;;;;;;;1.03;54.94;95415.03;5070287;28;20021;-69
2022/03/01 09:29:55;;;;;;;9.23;6.38;;;;;;;0.98;54.66;95411.81;5069033;28;20400;-69
2022/03/01 09:32:20;;;;;;;8.85;5.95;;;;;;;1.02;55.13;95413.38;5068913;28;20024;-70
2022/03/01 09:34:47;;;;;;;12.00;6.00;;;;;;;1.08;55.27;95410.56;5070213;28;20487;-69
2022/03/01 09:37:12;;;;;;;10.20;6.03;;;;;;;1.13;55.43;95412.97;5053649;28;20188;-69
2022/03/01 09:39:37;;;;;;;8.63;5.18;;;;;;;1.13;54.22;95411.25;5056208;28;20040;-69
2022/03/01 09:42:03;;;;;;;9.05;5.38;;;;;;;1.18;55.49;95400.84;5073991;28;20414;-69
2022/03/01 09:44:29;;;;;;;8.30;5.47;;;;;;;1.28;56.56;95404.72;5074283;28;20027;-69
2022/03/01 09:46:54;;;;;;;8.70;5.45;;;;;;;1.27;55.37;95401.34;5072490;28;20047;-69
2022/03/01 09:49:20;;;;;;;7.97;5.38;;;;;;;1.42;53.82;95417.88;5056077;28;20518;-69
2022/03/01 09:51:45;;;;;;;11.77;5.40;;;;;;;1.43;53.74;95413.59;5055669;28;20067;-69
2022/03/01 09:54:11;;;;;;;8.70;5.60;;;;;;;1.39;53.99;95401.78;5072629;28;20066;-69
2022/03/01 09:56:36;;;;;;;9.27;5.60;;;;;;;1.49;55.61;95401.38;5072346;28;20086;-69
2022/03/01 09:59:02;;;;;;;10.82;6.00;;;;;;;1.57;54.27;95403.66;5055762;28;20083;-69
2022/03/01 10:01:27;;;;;;;10.63;6.28;;;;;;;1.60;56.19;95406.09;5072251;28;20540;-69
2022/03/01 10:03:53;;;;;;;11.35;7.25;;;;;;;1.56;54.18;95404.53;5072177;28;20037;-69
2022/03/01 10:06:21;;;;;;;10.70;6.22;;;;;;;1.46;53.28;95395.53;5072207;28;20032;-70
2022/03/01 10:08:56;;;;;;;10.40;6.18;;;;;;;1.50;54.14;95391.97;5072081;28;20029;-69
2022/03/01 10:11:22;;;;;;;13.35;8.52;;;;;;;1.59;54.30;95391.63;5055836;28;20210;-69
2022/03/01 10:13:48;;;;;;;8.95;5.82;;;;;;;1.52;52.32;95379.94;5038964;28;20367;-69
2022/03/01 10:16:15;;;;;;;9.13;6.00;;;;;;;1.61;52.87;95389.81;5071844;28;20040;-69
2022/03/01 10:18:52;;;;;;;9.57;5.65;;;;;;;1.68;53.88;95393.81;5072115;28;20521;-69
2022/03/01 10:21:18;;;;;;;10.52;6.07;;;;;;;1.54;53.30;95375.59;5073201;28;20024;-69
2022/03/01 10:23:48;;;;;;;11.10;6.05;;;;;;;1.64;53.34;95379.44;5071768;28;20043;-69
2022/03/01 10:26:14;;;;;;;9.82;6.32;;;;;;;1.73;52.53;95384.22;5071845;28;20036;-69
2022/03/01 10:28:39;;;;;;;9.55;6.18;;;;;;;1.73;53.27;95376.56;5071875;28;20029;-70
2022/03/01 10:31:11;;;;;;;8.35;5.50;;;;;;;1.77;53.51;95374.69;5054970;28;20476;-69
2022/03/01 10:33:38;;;;;;;7.85;5.10;;;;;;;1.80;51.56;95374.56;5055503;28;20413;-69
2022/03/01 10:36:04;;;;;;;6.88;4.90;;;;;;;1.85;54.06;95374.41;5071594;28;20033;-69
2022/03/01 10:38:29;;;;;;;6.95;4.32;;;;;;;1.78;50.93;95369.53;5071729;28;20135;-69
2022/03/01 10:40:59;;;;;;;7.53;4.05;;;;;;;1.50;49.54;95363.78;5071395;28;20021;-69
2022/03/01 10:43:25;;;;;;;8.07;4.97;;;;;;;1.46;51.15;95364.81;5072874;28;20036;-69
2022/03/01 10:45:52;;;;;;;8.68;5.35;;;;;;;1.53;52.64;95363.66;5071414;28;20525;-69
2022/03/01 10:48:31;;;;;;;10.27;5.68;;;;;;;1.60;52.66;95354.88;5053833;28;20123;-69
2022/03/01 10:51:08;;;;;;;7.82;5.07;;;;;;;1.69;53.14;95354.50;5071341;28;20478;-69
2022/03/01 10:53:39;;;;;;;12.48;7.10;;;;;;;1.74;52.99;95344.91;5071540;28;20043;-70
2022/03/01 10:56:07;;;;;;;11.55;6.53;;;;;;;1.77;53.17;95355.03;5071336;28;20372;-69
2022/03/01 10:58:33;;;;;;;8.82;5.75;;;;;;;1.81;52.28;95349.78;5071368;28;20131;-69
2022/03/01 11:00:58;;;;;;;10.20;6.97;;;;;;;1.71;53.63;95329.66;5054378;28;20025;-69
2022/03/01 11:03:24;;;;;;;14.73;7.38;;;;;;;1.81;53.45;95350.59;5054403;28;20110;-69
2022/03/01 11:05:52;;;;;;;10.80;6.63;;;;;;;1.76;52.68;95345.69;5054285;28;20411;-69
2022/03/01 11:08:17;;;;;;;11.38;6.90;;;;;;;1.76;53.21;95344.84;5054627;28;20478;-70
2022/03/01 11:10:43;;;;;;;8.32;6.18;;;;;;;1.71;53.38;95342.47;5070946;28;20108;-69
2022/03/01 11:13:08;;;;;;;10.13;5.88;;;;;;;1.67;52.64;95346.06;5071008;28;20437;-69
2022/03/01 11:15:58;;;;;;;9.68;5.90;;;;;;;1.63;54.42;95338.53;5054132;28;20016;-69
2022/03/01 11:18:54;;;;;;;9.65;6.22;;;;;;;1.47;54.73;95333.19;5072260;28;20474;-69
2022/03/01 11:21:21;;;;;;;9.15;5.63;;;;;;;1.46;53.77;95336.66;5071971;28;20025;-69
2022/03/01 11:23:48;;;;;;;7.60;5.10;;;;;;;1.40;53.45;95331.78;5070752;28;20033;-69
2022/03/01 11:26:14;;;;;;;8.10;5.15;;;;;;;1.36;53.77;95320.78;5070683;28;20028;-69
2022/03/01 11:28:40;;;;;;;8.77;5.57;;;;;;;1.34;54.46;95322.59;5070719;28;20040;-69